F/V Berriz Patxiku — ECES — position and weather

sailwx.info

Track history (hours):
 
Tides and Currents Weather Stations Pressure Air Temp Water Temp Dewpoint Dewpoint Depression Visibility Wind Speed Wind Dir Waves Ship Positions

F/V Berriz Patxiku

Last reported at 2016-Dec-08 03:34 UTC. Time now 2016-Dec-08 04:08 UTC.
Position N 43°23' W 001°51'.

Length 30 m.

Type: Fishing. MMSI: 224106260.

Date/timePositionNaut miles runAvg speedWind from/ knotsBaromVisibWave heightAir tempDewpointWater temp
2016-Dec-08 03:34N 43°23' W 001°51'0 0.3
2016-Dec-08 02:33N 43°24' W 001°51'0 0.2
2016-Dec-08 01:29N 43°24' W 001°51'0 0.4
2016-Dec-08 00:33N 43°24' W 001°51'0 0.3
2016-Dec-07 23:33N 43°24' W 001°51'0 0.2
2016-Dec-07 22:33N 43°24' W 001°51'0 0.1
2016-Dec-07 21:32N 43°24' W 001°51'0 0.3
2016-Dec-07 20:33N 43°24' W 001°51'3 3.2
2016-Dec-07 19:33N 43°22' W 001°56'7 7.2
2016-Dec-07 18:33N 43°20' W 002°05'0 0.4
2016-Dec-07 17:27N 43°20' W 002°05'2 0.3
2016-Dec-07 09:04N 43°19' W 002°08'5 9.7
2016-Dec-07 08:33N 43°21' W 002°02'9 9.5
2016-Dec-07 07:33N 43°25' W 001°50'1 0.8
2016-Dec-07 06:33N 43°25' W 001°49'3 2.9
2016-Dec-07 05:33N 43°24' W 001°52'1 0.9
2016-Dec-07 04:33N 43°23' W 001°53'0 0.1
2016-Dec-07 03:33N 43°23' W 001°53'0 0.1
2016-Dec-07 02:33N 43°23' W 001°53'0 0.1
2016-Dec-07 01:33N 43°23' W 001°53'0 0.2
2016-Dec-07 00:33N 43°23' W 001°53'0 0.1
2016-Dec-06 23:34N 43°23' W 001°53'0 0.2
2016-Dec-06 22:33N 43°23' W 001°53'1 0.6
2016-Dec-06 21:33N 43°23' W 001°54'1 1.1
2016-Dec-06 20:33N 43°22' W 001°54'6 2.8
2016-Dec-06 18:33N 43°21' W 002°02'5 4.4
2016-Dec-06 17:20N 43°20' W 002°09'2 1.9
2016-Dec-06 16:22N 43°19' W 002°10'18 3.5
2016-Dec-06 11:22N 43°34' W 001°57'8 9.6
2016-Dec-06 10:33N 43°40' W 001°51'23 9.7
2016-Dec-06 08:12N 43°59' W 001°32'4 6.6
2016-Dec-06 07:33N 44°03' W 001°30'0 0.4
2016-Dec-06 06:34N 44°02' W 001°29'7 7.1
2016-Dec-06 05:33N 44°09' W 001°30'2 2.2
2016-Dec-06 04:33N 44°07' W 001°29'8 7.7
2016-Dec-06 03:33N 43°60' W 001°30'3 3.5
2016-Dec-06 02:33N 44°03' W 001°29'1 1.1
2016-Dec-06 01:33N 44°04' W 001°29'3 3.3
2016-Dec-06 00:33N 44°01' W 001°31'0 0.2
2016-Dec-05 23:33N 44°01' W 001°31'16 2.6
2016-Dec-05 17:33N 43°46' W 001°39'10 9.7
2016-Dec-05 16:33N 43°40' W 001°49'  
2016-Dec-02 06:24N 43°18' W 002°12'0 0.0
2016-Dec-02 05:29N 43°18' W 002°12'1 1.5
2016-Dec-02 04:32N 43°19' W 002°10'4 3.6
2016-Dec-02 03:33N 43°20' W 002°06'9 8.8
2016-Dec-02 02:33N 43°28' W 001°60'8 8.4
2016-Dec-02 01:33N 43°35' W 001°53'9 8.5
2016-Dec-02 00:33N 43°42' W 001°47'8 8.4
2016-Dec-01 23:33N 43°49' W 001°41'9 4.7
2016-Dec-01 21:33N 43°58' W 001°37'11 5.6
2016-Dec-01 19:33N 43°47' W 001°34'0 0.2
2016-Dec-01 18:32N 43°47' W 001°34'5 4.2
2016-Dec-01 17:28N 43°48' W 001°40'36 3.3
2016-Dec-01 06:33N 43°22' W 002°16'4 4.1
2016-Dec-01 05:30N 43°23' W 002°10'2 0.5
2016-Dec-01 02:22N 43°21' W 002°11'5 5.3
2016-Dec-01 01:27N 43°22' W 002°05'8 9.3
2016-Dec-01 00:33N 43°27' W 001°55'1 1.1
2016-Nov-30 23:23N 43°27' W 001°53'0 0.3
2016-Nov-30 22:32N 43°27' W 001°53'1010.0
2016-Nov-30 21:33N 43°37' W 001°55'5 4.6
2016-Nov-30 20:32N 43°41' W 001°52'4 3.4
2016-Nov-30 19:17N 43°38' W 001°57'23 2.5
2016-Nov-30 10:18N 43°18' W 002°12'0 0.0
2016-Nov-30 09:22N 43°18' W 002°12'0 0.0
2016-Nov-30 08:33N 43°18' W 002°12'0 0.1
2016-Nov-30 07:30N 43°18' W 002°12'0 0.0
2016-Nov-30 06:33N 43°18' W 002°12'9 8.6
2016-Nov-30 05:33N 43°24' W 002°02'7 6.8
2016-Nov-30 04:33N 43°28' W 001°55'0 0.5
2016-Nov-30 03:33N 43°27' W 001°55'2 1.6
2016-Nov-30 02:33N 43°26' W 001°55'1 0.6
2016-Nov-30 01:33N 43°26' W 001°55'0 0.2
2016-Nov-30 00:33N 43°26' W 001°55'0 0.3
2016-Nov-29 23:33N 43°26' W 001°55'0 0.5
2016-Nov-29 22:33N 43°26' W 001°54'2 2.2
2016-Nov-29 21:34N 43°24' W 001°57'1 0.6
2016-Nov-29 20:29N 43°24' W 001°56'2 1.8
2016-Nov-29 19:33N 43°23' W 001°54'1 0.6
2016-Nov-29 18:33N 43°23' W 001°53'5 5.3
2016-Nov-29 17:33N 43°21' W 001°60'18 1.3
2016-Nov-29 03:17N 43°39' W 001°53'  
Track history (hours):
 
Tides and Currents Weather Stations Pressure Air Temp Water Temp Dewpoint Dewpoint Depression Visibility Wind Speed Wind Dir Waves Ship Positions

F/V Berriz Patxiku

Last reported at 2016-Dec-08 03:34 UTC. Time now 2016-Dec-08 04:08 UTC.
Position N 43°23' W 001°51'.

Length 30 m.

Type: Fishing. MMSI: 224106260.

Date/timePositionNaut miles runAvg speedWind from/ knotsBaromVisibWave heightAir tempDewpointWater temp
2016-Dec-08 03:34N 43°23' W 001°51'0 0.3
2016-Dec-08 02:33N 43°24' W 001°51'0 0.2
2016-Dec-08 01:29N 43°24' W 001°51'0 0.4
2016-Dec-08 00:33N 43°24' W 001°51'0 0.3
2016-Dec-07 23:33N 43°24' W 001°51'0 0.2
2016-Dec-07 22:33N 43°24' W 001°51'0 0.1
2016-Dec-07 21:32N 43°24' W 001°51'0 0.3
2016-Dec-07 20:33N 43°24' W 001°51'3 3.2
2016-Dec-07 19:33N 43°22' W 001°56'7 7.2
2016-Dec-07 18:33N 43°20' W 002°05'0 0.4
2016-Dec-07 17:27N 43°20' W 002°05'2 0.3
2016-Dec-07 09:04N 43°19' W 002°08'5 9.7
2016-Dec-07 08:33N 43°21' W 002°02'9 9.5
2016-Dec-07 07:33N 43°25' W 001°50'1 0.8
2016-Dec-07 06:33N 43°25' W 001°49'3 2.9
2016-Dec-07 05:33N 43°24' W 001°52'1 0.9
2016-Dec-07 04:33N 43°23' W 001°53'0 0.1
2016-Dec-07 03:33N 43°23' W 001°53'0 0.1
2016-Dec-07 02:33N 43°23' W 001°53'0 0.1
2016-Dec-07 01:33N 43°23' W 001°53'0 0.2
2016-Dec-07 00:33N 43°23' W 001°53'0 0.1
2016-Dec-06 23:34N 43°23' W 001°53'0 0.2
2016-Dec-06 22:33N 43°23' W 001°53'1 0.6
2016-Dec-06 21:33N 43°23' W 001°54'1 1.1
2016-Dec-06 20:33N 43°22' W 001°54'6 2.8
2016-Dec-06 18:33N 43°21' W 002°02'5 4.4
2016-Dec-06 17:20N 43°20' W 002°09'2 1.9
2016-Dec-06 16:22N 43°19' W 002°10'18 3.5
2016-Dec-06 11:22N 43°34' W 001°57'8 9.6
2016-Dec-06 10:33N 43°40' W 001°51'23 9.7
2016-Dec-06 08:12N 43°59' W 001°32'4 6.6
2016-Dec-06 07:33N 44°03' W 001°30'0 0.4
2016-Dec-06 06:34N 44°02' W 001°29'7 7.1
2016-Dec-06 05:33N 44°09' W 001°30'2 2.2
2016-Dec-06 04:33N 44°07' W 001°29'8 7.7
2016-Dec-06 03:33N 43°60' W 001°30'3 3.5
2016-Dec-06 02:33N 44°03' W 001°29'1 1.1
2016-Dec-06 01:33N 44°04' W 001°29'3 3.3
2016-Dec-06 00:33N 44°01' W 001°31'0 0.2
2016-Dec-05 23:33N 44°01' W 001°31'16 2.6
2016-Dec-05 17:33N 43°46' W 001°39'10 9.7
2016-Dec-05 16:33N 43°40' W 001°49'  
2016-Dec-02 06:24N 43°18' W 002°12'0 0.0
2016-Dec-02 05:29N 43°18' W 002°12'1 1.5
2016-Dec-02 04:32N 43°19' W 002°10'4 3.6
2016-Dec-02 03:33N 43°20' W 002°06'9 8.8
2016-Dec-02 02:33N 43°28' W 001°60'8 8.4
2016-Dec-02 01:33N 43°35' W 001°53'9 8.5
2016-Dec-02 00:33N 43°42' W 001°47'8 8.4
2016-Dec-01 23:33N 43°49' W 001°41'9 4.7
2016-Dec-01 21:33N 43°58' W 001°37'11 5.6
2016-Dec-01 19:33N 43°47' W 001°34'0 0.2
2016-Dec-01 18:32N 43°47' W 001°34'5 4.2
2016-Dec-01 17:28N 43°48' W 001°40'36 3.3
2016-Dec-01 06:33N 43°22' W 002°16'4 4.1
2016-Dec-01 05:30N 43°23' W 002°10'2 0.5
2016-Dec-01 02:22N 43°21' W 002°11'5 5.3
2016-Dec-01 01:27N 43°22' W 002°05'8 9.3
2016-Dec-01 00:33N 43°27' W 001°55'1 1.1
2016-Nov-30 23:23N 43°27' W 001°53'0 0.3
2016-Nov-30 22:32N 43°27' W 001°53'1010.0
2016-Nov-30 21:33N 43°37' W 001°55'5 4.6
2016-Nov-30 20:32N 43°41' W 001°52'4 3.4
2016-Nov-30 19:17N 43°38' W 001°57'23 2.5
2016-Nov-30 10:18N 43°18' W 002°12'0 0.0
2016-Nov-30 09:22N 43°18' W 002°12'0 0.0
2016-Nov-30 08:33N 43°18' W 002°12'0 0.1
2016-Nov-30 07:30N 43°18' W 002°12'0 0.0
2016-Nov-30 06:33N 43°18' W 002°12'9 8.6
2016-Nov-30 05:33N 43°24' W 002°02'7 6.8
2016-Nov-30 04:33N 43°28' W 001°55'0 0.5
2016-Nov-30 03:33N 43°27' W 001°55'2 1.6
2016-Nov-30 02:33N 43°26' W 001°55'1 0.6
2016-Nov-30 01:33N 43°26' W 001°55'0 0.2
2016-Nov-30 00:33N 43°26' W 001°55'0 0.3
2016-Nov-29 23:33N 43°26' W 001°55'0 0.5
2016-Nov-29 22:33N 43°26' W 001°54'2 2.2
2016-Nov-29 21:34N 43°24' W 001°57'1 0.6
2016-Nov-29 20:29N 43°24' W 001°56'2 1.8
2016-Nov-29 19:33N 43°23' W 001°54'1 0.6
2016-Nov-29 18:33N 43°23' W 001°53'5 5.3
2016-Nov-29 17:33N 43°21' W 001°60'18 1.3
2016-Nov-29 03:17N 43°39' W 001°53'  

Dump ship's entire track history